sensor_id;sensor_type;location;lat;lon;timestamp;temperature;humidity
19734;DHT22;10018;51.230;7.860;2022-10-26T00:01:28;8.60;99.90
19734;DHT22;10018;51.230;7.860;2022-10-26T00:03:54;8.60;99.90
19734;DHT22;10018;51.230;7.860;2022-10-26T00:06:22;8.60;99.90
19734;DHT22;10018;51.230;7.860;2022-10-26T00:08:50;8.60;99.90
19734;DHT22;10018;51.230;7.860;2022-10-26T00:11:17;8.60;99.90
19734;DHT22;10018;51.230;7.860;2022-10-26T00:13:43;8.60;99.90
19734;DHT22;10018;51.230;7.860;2022-10-26T00:16:18;8.70;99.90
19734;DHT22;10018;51.230;7.860;2022-10-26T00:18:45;8.70;99.90
19734;DHT22;10018;51.230;7.860;2022-10-26T00:21:11;8.70;99.90
19734;DHT22;10018;51.230;7.860;2022-10-26T00:23:37;8.70;99.90
19734;DHT22;10018;51.230;7.860;2022-10-26T00:26:03;8.70;99.90
19734;DHT22;10018;51.230;7.860;2022-10-26T00:28:28;8.70;99.90
19734;DHT22;10018;51.230;7.860;2022-10-26T00:30:54;8.70;99.90
19734;DHT22;10018;51.230;7.860;2022-10-26T00:33:20;8.70;99.90
19734;DHT22;10018;51.230;7.860;2022-10-26T00:35:55;8.70;99.90
19734;DHT22;10018;51.230;7.860;2022-10-26T00:38:20;8.80;99.90
19734;DHT22;10018;51.230;7.860;2022-10-26T00:40:46;8.80;99.90
19734;DHT22;10018;51.230;7.860;2022-10-26T00:43:33;8.80;99.90
19734;DHT22;10018;51.230;7.860;2022-10-26T00:46:01;8.80;99.90
19734;DHT22;10018;51.230;7.860;2022-10-26T00:48:29;8.80;99.90
19734;DHT22;10018;51.230;7.860;2022-10-26T00:50:58;8.80;99.90
19734;DHT22;10018;51.230;7.860;2022-10-26T00:53:25;8.80;99.90
19734;DHT22;10018;51.230;7.860;2022-10-26T00:55:52;8.90;99.90
19734;DHT22;10018;51.230;7.860;2022-10-26T00:58:18;8.80;99.90
19734;DHT22;10018;51.230;7.860;2022-10-26T01:00:44;8.80;99.90
19734;DHT22;10018;51.230;7.860;2022-10-26T01:03:10;8.70;99.90
19734;DHT22;10018;51.230;7.860;2022-10-26T01:05:39;8.80;99.90
19734;DHT22;10018;51.230;7.860;2022-10-26T01:08:06;8.70;99.90
19734;DHT22;10018;51.230;7.860;2022-10-26T01:10:34;8.80;99.90
19734;DHT22;10018;51.230;7.860;2022-10-26T01:13:00;8.70;99.90
19734;DHT22;10018;51.230;7.860;2022-10-26T01:15:33;8.70;99.90
19734;DHT22;10018;51.230;7.860;2022-10-26T01:18:39;8.70;99.90
19734;DHT22;10018;51.230;7.860;2022-10-26T01:21:39;8.70;99.90
19734;DHT22;10018;51.230;7.860;2022-10-26T01:35:31;8.80;99.90
19734;DHT22;10018;51.230;7.860;2022-10-26T01:41:03;8.70;99.90
19734;DHT22;10018;51.230;7.860;2022-10-26T01:43:34;8.80;99.90
19734;DHT22;10018;51.230;7.860;2022-10-26T01:46:02;8.80;99.90
19734;DHT22;10018;51.230;7.860;2022-10-26T01:48:28;8.80;99.90
19734;DHT22;10018;51.230;7.860;2022-10-26T01:50:55;8.80;99.90
19734;DHT22;10018;51.230;7.860;2022-10-26T01:53:21;8.80;99.90
19734;DHT22;10018;51.230;7.860;2022-10-26T01:55:51;8.80;99.90
19734;DHT22;10018;51.230;7.860;2022-10-26T02:04:27;8.80;99.90
19734;DHT22;10018;51.230;7.860;2022-10-26T02:07:15;8.80;99.90
19734;DHT22;10018;51.230;7.860;2022-10-26T02:12:49;8.80;99.90
19734;DHT22;10018;51.230;7.860;2022-10-26T02:15:22;8.80;99.90
19734;DHT22;10018;51.230;7.860;2022-10-26T02:18:03;8.80;99.90
19734;DHT22;10018;51.230;7.860;2022-10-26T02:20:40;8.80;99.90
19734;DHT22;10018;51.230;7.860;2022-10-26T02:23:07;8.90;99.90
19734;DHT22;10018;51.230;7.860;2022-10-26T02:25:38;8.90;99.90
19734;DHT22;10018;51.230;7.860;2022-10-26T02:28:14;8.90;99.90
19734;DHT22;10018;51.230;7.860;2022-10-26T02:30:43;8.90;99.90
19734;DHT22;10018;51.230;7.860;2022-10-26T02:33:11;8.90;99.90
19734;DHT22;10018;51.230;7.860;2022-10-26T02:35:40;8.90;99.90
19734;DHT22;10018;51.230;7.860;2022-10-26T02:38:09;8.90;99.90
19734;DHT22;10018;51.230;7.860;2022-10-26T02:40:36;8.90;99.90
19734;DHT22;10018;51.230;7.860;2022-10-26T02:43:06;8.90;99.90
19734;DHT22;10018;51.230;7.860;2022-10-26T02:45:38;8.90;99.90
19734;DHT22;10018;51.230;7.860;2022-10-26T02:48:05;8.90;99.90
19734;DHT22;10018;51.230;7.860;2022-10-26T02:53:56;8.90;99.90
19734;DHT22;10018;51.230;7.860;2022-10-26T02:56:34;8.90;99.90
19734;DHT22;10018;51.230;7.860;2022-10-26T02:59:04;8.90;99.90
19734;DHT22;10018;51.230;7.860;2022-10-26T03:01:32;8.90;99.90
19734;DHT22;10018;51.230;7.860;2022-10-26T03:03:58;8.90;99.90
19734;DHT22;10018;51.230;7.860;2022-10-26T03:06:24;8.90;99.90
19734;DHT22;10018;51.230;7.860;2022-10-26T03:08:50;8.90;99.90
19734;DHT22;10018;51.230;7.860;2022-10-26T03:11:16;8.90;99.90
19734;DHT22;10018;51.230;7.860;2022-10-26T03:13:42;9.00;99.90
19734;DHT22;10018;51.230;7.860;2022-10-26T03:16:07;9.00;99.90
19734;DHT22;10018;51.230;7.860;2022-10-26T03:18:33;9.00;99.90
19734;DHT22;10018;51.230;7.860;2022-10-26T03:20:58;9.00;99.90
19734;DHT22;10018;51.230;7.860;2022-10-26T03:23:24;9.00;99.90
19734;DHT22;10018;51.230;7.860;2022-10-26T03:25:49;9.10;99.90
19734;DHT22;10018;51.230;7.860;2022-10-26T03:28:15;9.00;99.90
19734;DHT22;10018;51.230;7.860;2022-10-26T03:30:41;9.00;99.90
19734;DHT22;10018;51.230;7.860;2022-10-26T03:33:06;9.00;99.90
19734;DHT22;10018;51.230;7.860;2022-10-26T03:35:32;9.10;99.90
19734;DHT22;10018;51.230;7.860;2022-10-26T03:37:57;9.10;99.90
19734;DHT22;10018;51.230;7.860;2022-10-26T03:40:23;9.10;99.90
19734;DHT22;10018;51.230;7.860;2022-10-26T03:42:48;9.10;99.90
19734;DHT22;10018;51.230;7.860;2022-10-26T03:45:14;9.10;99.90
19734;DHT22;10018;51.230;7.860;2022-10-26T03:47:45;9.10;99.90
19734;DHT22;10018;51.230;7.860;2022-10-26T03:50:12;9.10;99.90
19734;DHT22;10018;51.230;7.860;2022-10-26T03:52:38;9.10;99.90
19734;DHT22;10018;51.230;7.860;2022-10-26T03:55:04;9.10;99.90
19734;DHT22;10018;51.230;7.860;2022-10-26T03:57:30;9.20;99.90
19734;DHT22;10018;51.230;7.860;2022-10-26T03:59:56;9.20;99.90
19734;DHT22;10018;51.230;7.860;2022-10-26T04:02:21;9.20;99.90
19734;DHT22;10018;51.230;7.860;2022-10-26T04:04:47;9.20;99.90
19734;DHT22;10018;51.230;7.860;2022-10-26T04:07:12;9.30;99.90
19734;DHT22;10018;51.230;7.860;2022-10-26T04:09:38;9.30;99.90
19734;DHT22;10018;51.230;7.860;2022-10-26T04:12:03;9.40;99.90
19734;DHT22;10018;51.230;7.860;2022-10-26T04:14:29;9.40;99.90
19734;DHT22;10018;51.230;7.860;2022-10-26T04:16:54;9.40;99.90
19734;DHT22;10018;51.230;7.860;2022-10-26T04:19:20;9.40;99.90
19734;DHT22;10018;51.230;7.860;2022-10-26T04:21:45;9.50;99.90
19734;DHT22;10018;51.230;7.860;2022-10-26T04:24:11;9.50;99.90
19734;DHT22;10018;51.230;7.860;2022-10-26T04:26:36;9.50;99.90
19734;DHT22;10018;51.230;7.860;2022-10-26T04:29:02;9.50;99.90
19734;DHT22;10018;51.230;7.860;2022-10-26T04:31:31;9.50;99.90
19734;DHT22;10018;51.230;7.860;2022-10-26T04:33:57;9.50;99.90
19734;DHT22;10018;51.230;7.860;2022-10-26T04:36:22;9.50;99.90
19734;DHT22;10018;51.230;7.860;2022-10-26T04:38:48;9.50;99.90
19734;DHT22;10018;51.230;7.860;2022-10-26T04:41:13;9.50;99.90
19734;DHT22;10018;51.230;7.860;2022-10-26T04:43:39;9.50;99.90
19734;DHT22;10018;51.230;7.860;2022-10-26T04:46:05;9.50;99.90
19734;DHT22;10018;51.230;7.860;2022-10-26T04:48:30;9.50;99.90
19734;DHT22;10018;51.230;7.860;2022-10-26T04:50:59;9.50;99.90
19734;DHT22;10018;51.230;7.860;2022-10-26T04:53:26;9.50;99.90
19734;DHT22;10018;51.230;7.860;2022-10-26T04:55:59;9.50;99.90
19734;DHT22;10018;51.230;7.860;2022-10-26T04:58:26;9.50;99.90
19734;DHT22;10018;51.230;7.860;2022-10-26T05:00:51;9.50;99.90
19734;DHT22;10018;51.230;7.860;2022-10-26T05:03:17;9.50;99.90
19734;DHT22;10018;51.230;7.860;2022-10-26T05:05:42;9.50;99.90
19734;DHT22;10018;51.230;7.860;2022-10-26T05:08:08;9.50;99.90
19734;DHT22;10018;51.230;7.860;2022-10-26T05:10:34;9.40;99.90
19734;DHT22;10018;51.230;7.860;2022-10-26T05:12:59;9.50;99.90
19734;DHT22;10018;51.230;7.860;2022-10-26T05:15:27;9.40;99.90
19734;DHT22;10018;51.230;7.860;2022-10-26T05:18:04;9.50;99.90
19734;DHT22;10018;51.230;7.860;2022-10-26T05:20:32;9.50;99.90
19734;DHT22;10018;51.230;7.860;2022-10-26T05:23:00;9.50;99.90
19734;DHT22;10018;51.230;7.860;2022-10-26T05:25:28;9.50;99.90
19734;DHT22;10018;51.230;7.860;2022-10-26T05:28:02;9.50;99.90
19734;DHT22;10018;51.230;7.860;2022-10-26T05:30:29;9.50;99.90
19734;DHT22;10018;51.230;7.860;2022-10-26T05:32:56;9.50;99.90
19734;DHT22;10018;51.230;7.860;2022-10-26T05:35:23;9.50;99.90
19734;DHT22;10018;51.230;7.860;2022-10-26T05:37:50;9.50;99.90
19734;DHT22;10018;51.230;7.860;2022-10-26T05:40:15;9.50;99.90
19734;DHT22;10018;51.230;7.860;2022-10-26T05:42:42;9.50;99.90
19734;DHT22;10018;51.230;7.860;2022-10-26T05:45:08;9.50;99.90
19734;DHT22;10018;51.230;7.860;2022-10-26T05:47:37;9.50;99.90
19734;DHT22;10018;51.230;7.860;2022-10-26T05:50:04;9.50;99.90
19734;DHT22;10018;51.230;7.860;2022-10-26T05:52:29;9.50;99.90
19734;DHT22;10018;51.230;7.860;2022-10-26T05:54:55;9.50;99.90
19734;DHT22;10018;51.230;7.860;2022-10-26T05:57:21;9.50;99.90
19734;DHT22;10018;51.230;7.860;2022-10-26T05:59:46;9.50;99.90
19734;DHT22;10018;51.230;7.860;2022-10-26T06:02:29;9.50;99.90
19734;DHT22;10018;51.230;7.860;2022-10-26T06:05:02;9.60;99.90
19734;DHT22;10018;51.230;7.860;2022-10-26T06:07:29;9.60;99.90
19734;DHT22;10018;51.230;7.860;2022-10-26T06:09:55;9.60;99.90
19734;DHT22;10018;51.230;7.860;2022-10-26T06:12:20;9.70;99.90
19734;DHT22;10018;51.230;7.860;2022-10-26T06:14:46;9.70;99.90
19734;DHT22;10018;51.230;7.860;2022-10-26T06:17:45;9.70;99.90
19734;DHT22;10018;51.230;7.860;2022-10-26T06:20:31;9.70;99.90
19734;DHT22;10018;51.230;7.860;2022-10-26T06:26:04;9.60;99.90
19734;DHT22;10018;51.230;7.860;2022-10-26T06:28:55;9.70;99.90
19734;DHT22;10018;51.230;7.860;2022-10-26T06:31:22;9.70;99.90
19734;DHT22;10018;51.230;7.860;2022-10-26T06:33:47;9.80;99.90
19734;DHT22;10018;51.230;7.860;2022-10-26T06:36:23;9.80;99.90
19734;DHT22;10018;51.230;7.860;2022-10-26T06:38:55;9.80;99.90
19734;DHT22;10018;51.230;7.860;2022-10-26T06:41:23;9.90;99.90
19734;DHT22;10018;51.230;7.860;2022-10-26T06:43:49;9.90;99.90
19734;DHT22;10018;51.230;7.860;2022-10-26T06:46:35;9.90;99.90
19734;DHT22;10018;51.230;7.860;2022-10-26T06:52:25;9.90;99.90
19734;DHT22;10018;51.230;7.860;2022-10-26T06:54:46;10.00;99.90
19734;DHT22;10018;51.230;7.860;2022-10-26T06:57:14;10.00;99.90
19734;DHT22;10018;51.230;7.860;2022-10-26T06:59:56;10.00;99.90
19734;DHT22;10018;51.230;7.860;2022-10-26T07:02:24;10.10;99.90
19734;DHT22;10018;51.230;7.860;2022-10-26T07:04:49;10.10;99.90
19734;DHT22;10018;51.230;7.860;2022-10-26T07:07:21;10.10;99.90
19734;DHT22;10018;51.230;7.860;2022-10-26T07:09:48;10.20;99.90
19734;DHT22;10018;51.230;7.860;2022-10-26T07:12:13;10.20;99.90
19734;DHT22;10018;51.230;7.860;2022-10-26T07:14:39;10.30;99.90
19734;DHT22;10018;51.230;7.860;2022-10-26T07:17:05;10.30;99.90
19734;DHT22;10018;51.230;7.860;2022-10-26T07:19:30;10.30;99.90
19734;DHT22;10018;51.230;7.860;2022-10-26T07:21:56;10.30;99.90
19734;DHT22;10018;51.230;7.860;2022-10-26T07:24:24;10.30;99.90
19734;DHT22;10018;51.230;7.860;2022-10-26T07:26:49;10.40;99.90
19734;DHT22;10018;51.230;7.860;2022-10-26T07:29:15;10.40;99.90
19734;DHT22;10018;51.230;7.860;2022-10-26T07:31:43;10.50;99.90
19734;DHT22;10018;51.230;7.860;2022-10-26T07:34:09;10.50;99.90
19734;DHT22;10018;51.230;7.860;2022-10-26T07:36:34;10.50;99.90
19734;DHT22;10018;51.230;7.860;2022-10-26T07:39:02;10.50;99.90
19734;DHT22;10018;51.230;7.860;2022-10-26T07:41:27;10.60;99.90
19734;DHT22;10018;51.230;7.860;2022-10-26T07:43:53;10.60;99.90
19734;DHT22;10018;51.230;7.860;2022-10-26T07:46:18;10.70;99.90
19734;DHT22;10018;51.230;7.860;2022-10-26T07:48:44;10.70;99.90
19734;DHT22;10018;51.230;7.860;2022-10-26T07:51:09;10.70;99.90
19734;DHT22;10018;51.230;7.860;2022-10-26T07:53:35;10.80;99.90
19734;DHT22;10018;51.230;7.860;2022-10-26T07:56:00;10.80;99.90
19734;DHT22;10018;51.230;7.860;2022-10-26T07:58:26;10.90;99.90
19734;DHT22;10018;51.230;7.860;2022-10-26T08:00:52;10.90;99.90
19734;DHT22;10018;51.230;7.860;2022-10-26T08:03:19;11.00;99.90
19734;DHT22;10018;51.230;7.860;2022-10-26T08:05:46;11.10;99.90
19734;DHT22;10018;51.230;7.860;2022-10-26T08:08:12;11.30;99.90
19734;DHT22;10018;51.230;7.860;2022-10-26T08:10:44;11.40;99.90
19734;DHT22;10018;51.230;7.860;2022-10-26T08:13:10;11.50;99.90
19734;DHT22;10018;51.230;7.860;2022-10-26T08:15:36;11.60;99.90
19734;DHT22;10018;51.230;7.860;2022-10-26T08:18:02;11.60;99.90
19734;DHT22;10018;51.230;7.860;2022-10-26T08:20:27;11.60;99.90
19734;DHT22;10018;51.230;7.860;2022-10-26T08:22:55;11.70;99.90
19734;DHT22;10018;51.230;7.860;2022-10-26T08:25:21;11.80;99.90
19734;DHT22;10018;51.230;7.860;2022-10-26T08:27:46;11.80;99.90
19734;DHT22;10018;51.230;7.860;2022-10-26T08:30:12;11.80;99.90
19734;DHT22;10018;51.230;7.860;2022-10-26T08:32:37;11.80;99.90
19734;DHT22;10018;51.230;7.860;2022-10-26T08:35:03;11.90;99.90
19734;DHT22;10018;51.230;7.860;2022-10-26T08:37:29;12.00;99.90
19734;DHT22;10018;51.230;7.860;2022-10-26T08:39:54;12.10;99.90
19734;DHT22;10018;51.230;7.860;2022-10-26T08:42:29;12.30;99.90
19734;DHT22;10018;51.230;7.860;2022-10-26T08:45:02;12.60;99.90
19734;DHT22;10018;51.230;7.860;2022-10-26T08:47:33;12.80;99.90
19734;DHT22;10018;51.230;7.860;2022-10-26T08:55:17;13.00;99.90
19734;DHT22;10018;51.230;7.860;2022-10-26T08:57:43;13.20;99.90
19734;DHT22;10018;51.230;7.860;2022-10-26T09:00:18;13.40;99.90
19734;DHT22;10018;51.230;7.860;2022-10-26T09:02:51;13.70;99.90
19734;DHT22;10018;51.230;7.860;2022-10-26T09:05:22;14.10;99.90
19734;DHT22;10018;51.230;7.860;2022-10-26T09:08:20;14.30;99.90
19734;DHT22;10018;51.230;7.860;2022-10-26T09:11:05;14.60;99.90
19734;DHT22;10018;51.230;7.860;2022-10-26T09:16:39;14.90;99.90
19734;DHT22;10018;51.230;7.860;2022-10-26T09:24:54;15.40;99.90
19734;DHT22;10018;51.230;7.860;2022-10-26T09:27:26;15.50;99.90
19734;DHT22;10018;51.230;7.860;2022-10-26T09:29:57;15.60;99.90
19734;DHT22;10018;51.230;7.860;2022-10-26T09:32:39;15.60;99.90
19734;DHT22;10018;51.230;7.860;2022-10-26T09:37:43;15.80;99.90
19734;DHT22;10018;51.230;7.860;2022-10-26T09:42:55;15.90;99.90
19734;DHT22;10018;51.230;7.860;2022-10-26T09:45:32;15.90;99.90
19734;DHT22;10018;51.230;7.860;2022-10-26T09:48:38;15.90;99.90
19734;DHT22;10018;51.230;7.860;2022-10-26T09:51:05;16.00;99.90
19734;DHT22;10018;51.230;7.860;2022-10-26T09:53:31;16.00;99.90
19734;DHT22;10018;51.230;7.860;2022-10-26T09:56:08;16.10;99.90
19734;DHT22;10018;51.230;7.860;2022-10-26T09:58:42;16.20;99.90
19734;DHT22;10018;51.230;7.860;2022-10-26T10:01:21;16.20;99.90
19734;DHT22;10018;51.230;7.860;2022-10-26T10:03:47;16.30;99.90
19734;DHT22;10018;51.230;7.860;2022-10-26T10:06:20;16.30;99.90
19734;DHT22;10018;51.230;7.860;2022-10-26T10:09:05;16.30;99.90
19734;DHT22;10018;51.230;7.860;2022-10-26T10:14:08;16.50;99.90
19734;DHT22;10018;51.230;7.860;2022-10-26T10:16:38;16.50;99.90
19734;DHT22;10018;51.230;7.860;2022-10-26T10:19:04;16.60;99.90
19734;DHT22;10018;51.230;7.860;2022-10-26T10:21:40;16.70;99.90
19734;DHT22;10018;51.230;7.860;2022-10-26T10:24:29;16.80;99.90
19734;DHT22;10018;51.230;7.860;2022-10-26T10:27:01;16.90;99.90
19734;DHT22;10018;51.230;7.860;2022-10-26T10:29:38;17.00;99.90
19734;DHT22;10018;51.230;7.860;2022-10-26T10:32:04;17.00;99.90
19734;DHT22;10018;51.230;7.860;2022-10-26T10:34:31;17.00;99.90
19734;DHT22;10018;51.230;7.860;2022-10-26T10:36:58;17.10;99.90
19734;DHT22;10018;51.230;7.860;2022-10-26T10:39:37;17.10;99.90
19734;DHT22;10018;51.230;7.860;2022-10-26T10:42:10;17.20;99.90
19734;DHT22;10018;51.230;7.860;2022-10-26T10:44:38;17.20;99.90
19734;DHT22;10018;51.230;7.860;2022-10-26T10:47:06;17.40;99.90
19734;DHT22;10018;51.230;7.860;2022-10-26T10:49:32;17.40;99.90
19734;DHT22;10018;51.230;7.860;2022-10-26T10:51:58;17.50;99.90
19734;DHT22;10018;51.230;7.860;2022-10-26T10:54:29;17.50;99.90
19734;DHT22;10018;51.230;7.860;2022-10-26T10:57:17;17.60;99.90
19734;DHT22;10018;51.230;7.860;2022-10-26T11:00:02;17.80;99.90
19734;DHT22;10018;51.230;7.860;2022-10-26T11:02:33;17.90;99.90
19734;DHT22;10018;51.230;7.860;2022-10-26T11:05:23;18.20;99.90
19734;DHT22;10018;51.230;7.860;2022-10-26T11:10:56;18.30;99.90
19734;DHT22;10018;51.230;7.860;2022-10-26T11:13:37;18.40;99.90
19734;DHT22;10018;51.230;7.860;2022-10-26T11:16:10;18.50;99.90
19734;DHT22;10018;51.230;7.860;2022-10-26T11:18:42;18.60;99.90
19734;DHT22;10018;51.230;7.860;2022-10-26T11:21:32;18.70;99.90
19734;DHT22;10018;51.230;7.860;2022-10-26T11:27:04;18.80;99.90
19734;DHT22;10018;51.230;7.860;2022-10-26T11:30:12;18.90;99.90
19734;DHT22;10018;51.230;7.860;2022-10-26T11:32:49;19.10;99.90
19734;DHT22;10018;51.230;7.860;2022-10-26T11:37:55;19.20;99.90
19734;DHT22;10018;51.230;7.860;2022-10-26T11:40:43;19.10;99.90
19734;DHT22;10018;51.230;7.860;2022-10-26T11:46:08;19.00;99.90
19734;DHT22;10018;51.230;7.860;2022-10-26T11:48:42;19.20;99.90
19734;DHT22;10018;51.230;7.860;2022-10-26T11:51:20;19.30;99.90
19734;DHT22;10018;51.230;7.860;2022-10-26T11:53:47;19.40;99.90
19734;DHT22;10018;51.230;7.860;2022-10-26T11:56:22;19.60;99.90
19734;DHT22;10018;51.230;7.860;2022-10-26T11:58:49;19.60;99.90
19734;DHT22;10018;51.230;7.860;2022-10-26T12:01:16;19.70;99.90
19734;DHT22;10018;51.230;7.860;2022-10-26T12:03:46;19.80;99.90
19734;DHT22;10018;51.230;7.860;2022-10-26T12:06:19;19.80;99.90
19734;DHT22;10018;51.230;7.860;2022-10-26T12:09:00;19.80;99.90
19734;DHT22;10018;51.230;7.860;2022-10-26T12:11:44;19.90;99.90
19734;DHT22;10018;51.230;7.860;2022-10-26T12:17:34;20.00;99.90
19734;DHT22;10018;51.230;7.860;2022-10-26T12:20:34;20.00;99.90
19734;DHT22;10018;51.230;7.860;2022-10-26T12:23:10;20.00;99.90
19734;DHT22;10018;51.230;7.860;2022-10-26T12:25:36;20.10;99.90
19734;DHT22;10018;51.230;7.860;2022-10-26T12:28:01;20.10;99.90
19734;DHT22;10018;51.230;7.860;2022-10-26T12:30:32;20.10;99.90
19734;DHT22;10018;51.230;7.860;2022-10-26T12:33:03;20.30;99.90
19734;DHT22;10018;51.230;7.860;2022-10-26T12:35:48;20.40;99.90
19734;DHT22;10018;51.230;7.860;2022-10-26T12:41:34;20.40;99.90
19734;DHT22;10018;51.230;7.860;2022-10-26T12:43:39;20.30;99.90
19734;DHT22;10018;51.230;7.860;2022-10-26T12:56:36;20.40;99.90
19734;DHT22;10018;51.230;7.860;2022-10-26T12:59:37;20.60;99.90
19734;DHT22;10018;51.230;7.860;2022-10-26T13:05:05;20.70;99.90
19734;DHT22;10018;51.230;7.860;2022-10-26T13:07:39;20.80;99.90
19734;DHT22;10018;51.230;7.860;2022-10-26T13:10:17;20.80;99.90
19734;DHT22;10018;51.230;7.860;2022-10-26T13:12:55;20.80;99.90
19734;DHT22;10018;51.230;7.860;2022-10-26T13:15:38;20.90;99.90
19734;DHT22;10018;51.230;7.860;2022-10-26T13:18:09;20.90;99.90
19734;DHT22;10018;51.230;7.860;2022-10-26T13:20:36;20.80;99.90
19734;DHT22;10018;51.230;7.860;2022-10-26T13:23:26;20.90;99.90
19734;DHT22;10018;51.230;7.860;2022-10-26T13:26:13;21.30;99.90
19734;DHT22;10018;51.230;7.860;2022-10-26T13:33:39;21.60;99.90
19734;DHT22;10018;51.230;7.860;2022-10-26T13:36:16;21.40;99.90
19734;DHT22;10018;51.230;7.860;2022-10-26T13:38:44;20.90;99.90
19734;DHT22;10018;51.230;7.860;2022-10-26T13:41:21;20.50;99.90
19734;DHT22;10018;51.230;7.860;2022-10-26T13:43:49;20.40;99.90
19734;DHT22;10018;51.230;7.860;2022-10-26T13:46:25;20.50;99.90
19734;DHT22;10018;51.230;7.860;2022-10-26T13:48:53;21.00;99.90
19734;DHT22;10018;51.230;7.860;2022-10-26T13:51:24;21.30;99.90
19734;DHT22;10018;51.230;7.860;2022-10-26T13:53:56;21.30;99.90
19734;DHT22;10018;51.230;7.860;2022-10-26T13:56:29;21.30;99.90
19734;DHT22;10018;51.230;7.860;2022-10-26T13:59:01;21.50;99.90
19734;DHT22;10018;51.230;7.860;2022-10-26T14:01:28;21.70;99.90
19734;DHT22;10018;51.230;7.860;2022-10-26T14:03:54;21.90;99.90
19734;DHT22;10018;51.230;7.860;2022-10-26T14:06:35;22.00;99.90
19734;DHT22;10018;51.230;7.860;2022-10-26T14:09:13;22.50;99.90
19734;DHT22;10018;51.230;7.860;2022-10-26T14:11:52;22.90;99.90
19734;DHT22;10018;51.230;7.860;2022-10-26T14:14:23;23.10;99.90
19734;DHT22;10018;51.230;7.860;2022-10-26T14:16:50;23.20;99.90
19734;DHT22;10018;51.230;7.860;2022-10-26T14:19:34;22.90;99.90
19734;DHT22;10018;51.230;7.860;2022-10-26T14:22:00;23.20;99.90
19734;DHT22;10018;51.230;7.860;2022-10-26T14:24:28;23.50;99.90
19734;DHT22;10018;51.230;7.860;2022-10-26T14:26:54;23.20;99.90
19734;DHT22;10018;51.230;7.860;2022-10-26T14:29:22;23.10;99.90
19734;DHT22;10018;51.230;7.860;2022-10-26T14:31:48;23.20;99.90
19734;DHT22;10018;51.230;7.860;2022-10-26T14:34:15;23.30;99.90
19734;DHT22;10018;51.230;7.860;2022-10-26T14:37:18;23.20;99.90
19734;DHT22;10018;51.230;7.860;2022-10-26T14:39:46;23.20;99.90
19734;DHT22;10018;51.230;7.860;2022-10-26T14:42:28;23.40;99.90
19734;DHT22;10018;51.230;7.860;2022-10-26T14:44:56;23.50;99.90
19734;DHT22;10018;51.230;7.860;2022-10-26T14:47:24;23.50;99.90
19734;DHT22;10018;51.230;7.860;2022-10-26T14:49:51;23.40;99.90
19734;DHT22;10018;51.230;7.860;2022-10-26T14:52:31;23.70;99.90
19734;DHT22;10018;51.230;7.860;2022-10-26T14:55:12;23.90;99.90
19734;DHT22;10018;51.230;7.860;2022-10-26T14:57:39;23.80;99.90
19734;DHT22;10018;51.230;7.860;2022-10-26T15:00:17;23.30;99.90
19734;DHT22;10018;51.230;7.860;2022-10-26T15:02:45;22.70;99.90
19734;DHT22;10018;51.230;7.860;2022-10-26T15:05:40;22.10;99.90
19734;DHT22;10018;51.230;7.860;2022-10-26T15:08:39;21.20;99.90
19734;DHT22;10018;51.230;7.860;2022-10-26T15:11:08;20.60;99.90
19734;DHT22;10018;51.230;7.860;2022-10-26T15:13:33;20.00;99.90
19734;DHT22;10018;51.230;7.860;2022-10-26T15:16:16;19.60;99.90
19734;DHT22;10018;51.230;7.860;2022-10-26T15:18:44;19.40;99.90
19734;DHT22;10018;51.230;7.860;2022-10-26T15:21:36;19.30;99.90
19734;DHT22;10018;51.230;7.860;2022-10-26T15:24:03;19.10;99.90
19734;DHT22;10018;51.230;7.860;2022-10-26T15:26:42;18.80;99.90
19734;DHT22;10018;51.230;7.860;2022-10-26T15:29:40;18.60;99.90
19734;DHT22;10018;51.230;7.860;2022-10-26T15:37:35;18.10;99.90
19734;DHT22;10018;51.230;7.860;2022-10-26T15:40:01;17.90;99.90
19734;DHT22;10018;51.230;7.860;2022-10-26T15:42:26;17.60;99.90
19734;DHT22;10018;51.230;7.860;2022-10-26T15:44:52;17.50;99.90
19734;DHT22;10018;51.230;7.860;2022-10-26T15:47:18;17.40;99.90
19734;DHT22;10018;51.230;7.860;2022-10-26T15:49:45;17.20;99.90
19734;DHT22;10018;51.230;7.860;2022-10-26T15:52:10;17.10;99.90
19734;DHT22;10018;51.230;7.860;2022-10-26T15:54:36;17.00;99.90
19734;DHT22;10018;51.230;7.860;2022-10-26T15:57:01;16.80;99.90
19734;DHT22;10018;51.230;7.860;2022-10-26T15:59:28;16.70;99.90
19734;DHT22;10018;51.230;7.860;2022-10-26T16:01:53;16.50;99.90
19734;DHT22;10018;51.230;7.860;2022-10-26T16:04:19;16.40;99.90
19734;DHT22;10018;51.230;7.860;2022-10-26T16:06:44;16.20;99.90
19734;DHT22;10018;51.230;7.860;2022-10-26T16:09:13;16.10;99.90
19734;DHT22;10018;51.230;7.860;2022-10-26T16:11:40;16.00;99.90
19734;DHT22;10018;51.230;7.860;2022-10-26T16:14:06;15.90;99.90
19734;DHT22;10018;51.230;7.860;2022-10-26T16:16:32;15.80;99.90
19734;DHT22;10018;51.230;7.860;2022-10-26T16:18:57;15.70;99.90
19734;DHT22;10018;51.230;7.860;2022-10-26T16:21:23;15.50;99.90
19734;DHT22;10018;51.230;7.860;2022-10-26T16:23:51;15.40;99.90
19734;DHT22;10018;51.230;7.860;2022-10-26T16:26:17;15.40;99.90
19734;DHT22;10018;51.230;7.860;2022-10-26T16:28:43;15.30;99.90
19734;DHT22;10018;51.230;7.860;2022-10-26T16:31:14;15.20;99.90
19734;DHT22;10018;51.230;7.860;2022-10-26T16:33:40;15.10;99.90
19734;DHT22;10018;51.230;7.860;2022-10-26T16:36:06;15.00;99.90
19734;DHT22;10018;51.230;7.860;2022-10-26T16:38:32;14.90;99.90
19734;DHT22;10018;51.230;7.860;2022-10-26T16:41:11;14.80;99.90
19734;DHT22;10018;51.230;7.860;2022-10-26T16:43:39;14.70;99.90
19734;DHT22;10018;51.230;7.860;2022-10-26T16:46:07;14.60;99.90
19734;DHT22;10018;51.230;7.860;2022-10-26T16:48:37;14.50;99.90
19734;DHT22;10018;51.230;7.860;2022-10-26T16:51:11;14.50;99.90
19734;DHT22;10018;51.230;7.860;2022-10-26T16:53:37;14.40;99.90
19734;DHT22;10018;51.230;7.860;2022-10-26T16:56:05;14.40;99.90
19734;DHT22;10018;51.230;7.860;2022-10-26T16:58:31;14.30;99.90
19734;DHT22;10018;51.230;7.860;2022-10-26T17:00:57;14.20;99.90
19734;DHT22;10018;51.230;7.860;2022-10-26T17:03:22;14.20;99.90
19734;DHT22;10018;51.230;7.860;2022-10-26T17:06:11;14.20;99.90
19734;DHT22;10018;51.230;7.860;2022-10-26T17:08:37;14.10;99.90
19734;DHT22;10018;51.230;7.860;2022-10-26T17:11:07;14.00;99.90
19734;DHT22;10018;51.230;7.860;2022-10-26T17:13:34;13.90;99.90
19734;DHT22;10018;51.230;7.860;2022-10-26T17:16:05;13.90;99.90
19734;DHT22;10018;51.230;7.860;2022-10-26T17:18:31;13.80;99.90
19734;DHT22;10018;51.230;7.860;2022-10-26T17:20:57;13.70;99.90
19734;DHT22;10018;51.230;7.860;2022-10-26T17:23:23;13.60;99.90
19734;DHT22;10018;51.230;7.860;2022-10-26T17:25:48;13.60;99.90
19734;DHT22;10018;51.230;7.860;2022-10-26T17:28:14;13.60;99.90
19734;DHT22;10018;51.230;7.860;2022-10-26T17:30:39;13.50;99.90
19734;DHT22;10018;51.230;7.860;2022-10-26T17:33:05;13.40;99.90
19734;DHT22;10018;51.230;7.860;2022-10-26T17:35:32;13.50;99.90